sensor_id;sensor_type;location;lat;lon;timestamp;pressure;altitude;pressure_sealevel;temperature;humidity
29045;BME280;16133;49.486;12.176;2023-05-19T00:02:07;98017.41;;;9.67;85.87
29045;BME280;16133;49.486;12.176;2023-05-19T00:04:33;98014.44;;;9.62;88.72
29045;BME280;16133;49.486;12.176;2023-05-19T00:06:59;98010.63;;;9.64;89.05
29045;BME280;16133;49.486;12.176;2023-05-19T00:09:25;98014.94;;;9.65;86.52
29045;BME280;16133;49.486;12.176;2023-05-19T00:11:51;98023.72;;;9.66;84.88
29045;BME280;16133;49.486;12.176;2023-05-19T00:14:17;98015.91;;;9.64;84.38
29045;BME280;16133;49.486;12.176;2023-05-19T00:16:42;98021.06;;;9.66;84.98
29045;BME280;16133;49.486;12.176;2023-05-19T00:19:11;98013.28;;;9.64;87.56
29045;BME280;16133;49.486;12.176;2023-05-19T00:21:36;98010.94;;;9.61;86.77
29045;BME280;16133;49.486;12.176;2023-05-19T00:24:05;98005.47;;;9.63;86.57
29045;BME280;16133;49.486;12.176;2023-05-19T00:26:31;98010.63;;;9.64;82.74
29045;BME280;16133;49.486;12.176;2023-05-19T00:28:56;98000.69;;;9.66;80.08
29045;BME280;16133;49.486;12.176;2023-05-19T00:31:22;98011.97;;;9.68;79.29
29045;BME280;16133;49.486;12.176;2023-05-19T00:33:48;98009.97;;;9.70;79.87
29045;BME280;16133;49.486;12.176;2023-05-19T00:36:13;98003.69;;;9.71;79.84
29045;BME280;16133;49.486;12.176;2023-05-19T00:38:38;98006.00;;;9.74;78.17
29045;BME280;16133;49.486;12.176;2023-05-19T00:41:05;97996.75;;;9.78;76.04
29045;BME280;16133;49.486;12.176;2023-05-19T00:43:31;97992.78;;;9.82;75.70
29045;BME280;16133;49.486;12.176;2023-05-19T00:46:00;97990.00;;;9.84;74.87
29045;BME280;16133;49.486;12.176;2023-05-19T00:48:26;97981.72;;;9.87;74.56
29045;BME280;16133;49.486;12.176;2023-05-19T00:50:59;97983.38;;;9.88;73.74
29045;BME280;16133;49.486;12.176;2023-05-19T00:53:29;97983.22;;;9.89;74.28
29045;BME280;16133;49.486;12.176;2023-05-19T00:55:55;97983.88;;;9.91;73.19
29045;BME280;16133;49.486;12.176;2023-05-19T00:58:21;97979.44;;;9.92;72.59
29045;BME280;16133;49.486;12.176;2023-05-19T01:00:48;97980.25;;;9.92;73.32
29045;BME280;16133;49.486;12.176;2023-05-19T01:03:14;97979.56;;;9.90;74.32
29045;BME280;16133;49.486;12.176;2023-05-19T01:05:44;97977.75;;;9.91;74.33
29045;BME280;16133;49.486;12.176;2023-05-19T01:08:10;97977.75;;;9.91;74.91
29045;BME280;16133;49.486;12.176;2023-05-19T01:10:36;97973.94;;;9.93;73.72
29045;BME280;16133;49.486;12.176;2023-05-19T01:13:02;97977.91;;;9.89;74.27
29045;BME280;16133;49.486;12.176;2023-05-19T01:15:29;97974.59;;;9.87;73.58
29045;BME280;16133;49.486;12.176;2023-05-19T01:18:17;97974.59;;;9.87;73.49
29045;BME280;16133;49.486;12.176;2023-05-19T01:20:49;97966.47;;;9.89;72.87
29045;BME280;16133;49.486;12.176;2023-05-19T01:26:40;97974.78;;;9.94;73.27
29045;BME280;16133;49.486;12.176;2023-05-19T01:32:14;97969.31;;;9.95;72.42
29045;BME280;16133;49.486;12.176;2023-05-19T01:34:45;97973.44;;;9.90;73.41
29045;BME280;16133;49.486;12.176;2023-05-19T01:37:14;97978.41;;;9.85;73.19
29045;BME280;16133;49.486;12.176;2023-05-19T01:39:41;97974.44;;;9.81;74.06
29045;BME280;16133;49.486;12.176;2023-05-19T01:42:06;97977.56;;;9.76;76.21
29045;BME280;16133;49.486;12.176;2023-05-19T01:44:32;97983.19;;;9.73;75.27
29045;BME280;16133;49.486;12.176;2023-05-19T01:46:58;97976.22;;;9.72;74.83
29045;BME280;16133;49.486;12.176;2023-05-19T01:49:24;97975.69;;;9.69;76.27
29045;BME280;16133;49.486;12.176;2023-05-19T01:51:51;97977.38;;;9.70;75.15
29045;BME280;16133;49.486;12.176;2023-05-19T01:54:16;97975.53;;;9.70;75.57
29045;BME280;16133;49.486;12.176;2023-05-19T01:56:51;97967.91;;;9.67;75.61
29045;BME280;16133;49.486;12.176;2023-05-19T01:59:44;97975.19;;;9.65;74.87
29045;BME280;16133;49.486;12.176;2023-05-19T02:02:31;97981.81;;;9.61;75.22
29045;BME280;16133;49.486;12.176;2023-05-19T02:05:08;97964.88;;;9.62;77.16
29045;BME280;16133;49.486;12.176;2023-05-19T02:07:43;97965.53;;;9.56;76.76
29045;BME280;16133;49.486;12.176;2023-05-19T02:10:20;97972.00;;;9.53;77.38
29045;BME280;16133;49.486;12.176;2023-05-19T02:12:47;97952.91;;;9.42;78.41
29045;BME280;16133;49.486;12.176;2023-05-19T02:15:27;97974.28;;;9.48;79.01
29045;BME280;16133;49.486;12.176;2023-05-19T02:17:54;97968.47;;;9.45;82.16
29045;BME280;16133;49.486;12.176;2023-05-19T02:20:22;97965.47;;;9.40;83.84
29045;BME280;16133;49.486;12.176;2023-05-19T02:22:47;97957.19;;;9.35;84.35
29045;BME280;16133;49.486;12.176;2023-05-19T02:25:13;97962.78;;;9.32;85.51
29045;BME280;16133;49.486;12.176;2023-05-19T02:27:39;97958.50;;;9.31;85.33
29045;BME280;16133;49.486;12.176;2023-05-19T02:30:05;97966.44;;;9.31;86.31
29045;BME280;16133;49.486;12.176;2023-05-19T02:32:32;97965.75;;;9.29;88.58
29045;BME280;16133;49.486;12.176;2023-05-19T02:34:58;97961.75;;;9.25;88.64
29045;BME280;16133;49.486;12.176;2023-05-19T02:37:24;97961.94;;;9.23;88.53
29045;BME280;16133;49.486;12.176;2023-05-19T02:39:52;97963.75;;;9.23;87.00
29045;BME280;16133;49.486;12.176;2023-05-19T02:42:18;97956.78;;;9.22;84.88
29045;BME280;16133;49.486;12.176;2023-05-19T02:44:44;97961.09;;;9.23;85.22
29045;BME280;16133;49.486;12.176;2023-05-19T02:47:09;97962.75;;;9.24;84.08
29045;BME280;16133;49.486;12.176;2023-05-19T02:49:34;97962.91;;;9.22;83.18
29045;BME280;16133;49.486;12.176;2023-05-19T02:52:01;97964.72;;;9.22;83.04
29045;BME280;16133;49.486;12.176;2023-05-19T02:54:30;97957.41;;;9.16;83.10
29045;BME280;16133;49.486;12.176;2023-05-19T02:56:56;97952.72;;;9.09;83.77
29045;BME280;16133;49.486;12.176;2023-05-19T02:59:22;97954.66;;;8.99;86.10
29045;BME280;16133;49.486;12.176;2023-05-19T03:01:48;97948.28;;;8.84;87.58
29045;BME280;16133;49.486;12.176;2023-05-19T03:04:13;97948.38;;;8.75;87.31
29045;BME280;16133;49.486;12.176;2023-05-19T03:06:39;97941.72;;;8.71;86.93
29045;BME280;16133;49.486;12.176;2023-05-19T03:09:04;97938.56;;;8.67;87.84
29045;BME280;16133;49.486;12.176;2023-05-19T03:11:30;97929.44;;;8.61;88.87
29045;BME280;16133;49.486;12.176;2023-05-19T03:13:56;97932.31;;;8.68;89.52
29045;BME280;16133;49.486;12.176;2023-05-19T03:16:21;97938.09;;;8.72;90.63
29045;BME280;16133;49.486;12.176;2023-05-19T03:18:47;97942.94;;;8.76;91.03
29045;BME280;16133;49.486;12.176;2023-05-19T03:21:12;97937.19;;;8.81;90.91
29045;BME280;16133;49.486;12.176;2023-05-19T03:23:37;97933.91;;;8.87;87.98
29045;BME280;16133;49.486;12.176;2023-05-19T03:26:03;97939.56;;;8.92;86.51
29045;BME280;16133;49.486;12.176;2023-05-19T03:28:28;97938.28;;;8.96;86.05
29045;BME280;16133;49.486;12.176;2023-05-19T03:30:54;97939.91;;;8.97;85.63
29045;BME280;16133;49.486;12.176;2023-05-19T03:33:19;97949.53;;;8.98;87.04
29045;BME280;16133;49.486;12.176;2023-05-19T03:35:45;97942.78;;;9.03;84.94
29045;BME280;16133;49.486;12.176;2023-05-19T03:38:10;97942.31;;;9.08;84.98
29045;BME280;16133;49.486;12.176;2023-05-19T03:40:36;97951.13;;;9.17;86.99
29045;BME280;16133;49.486;12.176;2023-05-19T03:43:01;97953.47;;;9.28;87.86
29045;BME280;16133;49.486;12.176;2023-05-19T03:45:27;97954.22;;;9.38;85.71
29045;BME280;16133;49.486;12.176;2023-05-19T03:47:52;97959.88;;;9.51;83.86
29045;BME280;16133;49.486;12.176;2023-05-19T03:50:18;97956.44;;;9.58;82.90
29045;BME280;16133;49.486;12.176;2023-05-19T03:52:44;97964.88;;;9.62;81.67
29045;BME280;16133;49.486;12.176;2023-05-19T03:55:10;97963.75;;;9.65;80.96
29045;BME280;16133;49.486;12.176;2023-05-19T03:57:36;97970.06;;;9.72;82.26
29045;BME280;16133;49.486;12.176;2023-05-19T04:00:03;97967.47;;;9.80;80.75
29045;BME280;16133;49.486;12.176;2023-05-19T04:02:30;97964.00;;;9.87;80.82
29045;BME280;16133;49.486;12.176;2023-05-19T04:04:55;97976.94;;;9.98;79.75
29045;BME280;16133;49.486;12.176;2023-05-19T04:07:21;97977.63;;;10.08;80.34
29045;BME280;16133;49.486;12.176;2023-05-19T04:09:48;97980.19;;;10.18;79.92
29045;BME280;16133;49.486;12.176;2023-05-19T04:12:13;97972.06;;;10.28;79.20
29045;BME280;16133;49.486;12.176;2023-05-19T04:14:39;97981.22;;;10.41;77.26
29045;BME280;16133;49.486;12.176;2023-05-19T04:17:04;97973.41;;;10.56;76.39
29045;BME280;16133;49.486;12.176;2023-05-19T04:19:29;97977.06;;;10.71;75.45
29045;BME280;16133;49.486;12.176;2023-05-19T04:21:55;97968.59;;;10.84;74.70
29045;BME280;16133;49.486;12.176;2023-05-19T04:24:21;97978.19;;;10.85;74.03
29045;BME280;16133;49.486;12.176;2023-05-19T04:26:52;97967.56;;;10.93;73.54
29045;BME280;16133;49.486;12.176;2023-05-19T04:29:26;97972.22;;;11.07;72.65
29045;BME280;16133;49.486;12.176;2023-05-19T04:31:52;97972.34;;;11.22;72.87
29045;BME280;16133;49.486;12.176;2023-05-19T04:34:18;97977.44;;;11.39;71.70
29045;BME280;16133;49.486;12.176;2023-05-19T04:36:43;97985.50;;;11.62;69.89
29045;BME280;16133;49.486;12.176;2023-05-19T04:39:09;97971.84;;;11.73;69.01
29045;BME280;16133;49.486;12.176;2023-05-19T04:41:36;97971.19;;;11.79;68.72
29045;BME280;16133;49.486;12.176;2023-05-19T04:44:07;97976.31;;;11.81;68.43
29045;BME280;16133;49.486;12.176;2023-05-19T04:46:33;97977.16;;;11.81;69.26
29045;BME280;16133;49.486;12.176;2023-05-19T04:48:59;97972.84;;;11.80;69.23
29045;BME280;16133;49.486;12.176;2023-05-19T04:51:25;97971.47;;;11.84;69.83
29045;BME280;16133;49.486;12.176;2023-05-19T04:53:58;97972.97;;;11.87;69.95
29045;BME280;16133;49.486;12.176;2023-05-19T04:56:23;97979.13;;;11.87;69.22
29045;BME280;16133;49.486;12.176;2023-05-19T04:58:49;97978.78;;;11.90;69.89
29045;BME280;16133;49.486;12.176;2023-05-19T05:01:14;97974.81;;;11.86;69.78
29045;BME280;16133;49.486;12.176;2023-05-19T05:03:40;97973.66;;;11.81;70.46
29045;BME280;16133;49.486;12.176;2023-05-19T05:06:06;97976.31;;;11.81;70.39
29045;BME280;16133;49.486;12.176;2023-05-19T05:08:31;97978.28;;;11.87;70.68
29045;BME280;16133;49.486;12.176;2023-05-19T05:10:57;97969.53;;;11.78;69.46
29045;BME280;16133;49.486;12.176;2023-05-19T05:13:23;97968.66;;;11.86;68.99
29045;BME280;16133;49.486;12.176;2023-05-19T05:15:49;97969.09;;;11.97;69.09
29045;BME280;16133;49.486;12.176;2023-05-19T05:18:16;97973.50;;;12.13;69.20
29045;BME280;16133;49.486;12.176;2023-05-19T05:20:43;97981.59;;;12.20;67.47
29045;BME280;16133;49.486;12.176;2023-05-19T05:23:09;97977.78;;;12.22;67.27
29045;BME280;16133;49.486;12.176;2023-05-19T05:25:39;97974.44;;;12.20;67.16
29045;BME280;16133;49.486;12.176;2023-05-19T05:28:05;97976.88;;;12.30;67.31
29045;BME280;16133;49.486;12.176;2023-05-19T05:30:30;97957.84;;;12.41;66.97
29045;BME280;16133;49.486;12.176;2023-05-19T05:32:56;97969.31;;;12.64;66.55
29045;BME280;16133;49.486;12.176;2023-05-19T05:35:22;97970.13;;;12.87;66.69
29045;BME280;16133;49.486;12.176;2023-05-19T05:37:48;97967.69;;;13.15;66.24
29045;BME280;16133;49.486;12.176;2023-05-19T05:40:14;97974.63;;;13.39;64.34
29045;BME280;16133;49.486;12.176;2023-05-19T05:42:39;97971.78;;;13.55;62.29
29045;BME280;16133;49.486;12.176;2023-05-19T05:45:05;97979.47;;;13.50;62.87
29045;BME280;16133;49.486;12.176;2023-05-19T05:47:31;97969.09;;;13.26;62.89
29045;BME280;16133;49.486;12.176;2023-05-19T05:50:00;97977.09;;;13.26;63.40
29045;BME280;16133;49.486;12.176;2023-05-19T05:52:28;97972.94;;;13.23;63.46
29045;BME280;16133;49.486;12.176;2023-05-19T05:54:54;97980.31;;;13.21;64.68
29045;BME280;16133;49.486;12.176;2023-05-19T05:57:20;97968.53;;;13.16;63.51
29045;BME280;16133;49.486;12.176;2023-05-19T05:59:46;97965.22;;;13.14;63.60
29045;BME280;16133;49.486;12.176;2023-05-19T06:02:11;97969.09;;;13.26;64.20
29045;BME280;16133;49.486;12.176;2023-05-19T06:04:37;97971.03;;;13.47;63.14
29045;BME280;16133;49.486;12.176;2023-05-19T06:07:02;97967.34;;;13.62;63.66
29045;BME280;16133;49.486;12.176;2023-05-19T06:09:27;97974.69;;;13.89;62.53
29045;BME280;16133;49.486;12.176;2023-05-19T06:11:54;97961.38;;;14.11;60.77
29045;BME280;16133;49.486;12.176;2023-05-19T06:14:19;97963.34;;;14.38;59.78
29045;BME280;16133;49.486;12.176;2023-05-19T06:16:45;97957.50;;;14.49;59.07
29045;BME280;16133;49.486;12.176;2023-05-19T06:19:12;97951.19;;;14.57;58.94
29045;BME280;16133;49.486;12.176;2023-05-19T06:21:38;97954.00;;;14.70;58.60
29045;BME280;16133;49.486;12.176;2023-05-19T06:24:03;97950.75;;;14.74;58.34
29045;BME280;16133;49.486;12.176;2023-05-19T06:26:28;97952.84;;;14.79;58.66
29045;BME280;16133;49.486;12.176;2023-05-19T06:28:54;97954.88;;;14.98;57.48
29045;BME280;16133;49.486;12.176;2023-05-19T06:31:19;97953.50;;;15.09;57.61
29045;BME280;16133;49.486;12.176;2023-05-19T06:33:45;97956.69;;;15.25;57.12
29045;BME280;16133;49.486;12.176;2023-05-19T06:36:11;97952.06;;;15.41;56.59
29045;BME280;16133;49.486;12.176;2023-05-19T06:38:38;97952.81;;;15.28;56.65
29045;BME280;16133;49.486;12.176;2023-05-19T06:41:03;97943.31;;;15.25;56.24
29045;BME280;16133;49.486;12.176;2023-05-19T06:43:29;97955.50;;;15.35;57.25
29045;BME280;16133;49.486;12.176;2023-05-19T06:45:54;97953.59;;;15.56;57.01
29045;BME280;16133;49.486;12.176;2023-05-19T06:48:20;97950.56;;;15.59;56.15
29045;BME280;16133;49.486;12.176;2023-05-19T06:50:45;97960.63;;;15.64;55.10
29045;BME280;16133;49.486;12.176;2023-05-19T06:53:10;97951.00;;;15.63;55.58
29045;BME280;16133;49.486;12.176;2023-05-19T06:55:36;97950.00;;;15.70;54.87
29045;BME280;16133;49.486;12.176;2023-05-19T06:58:01;97945.22;;;15.59;55.66
29045;BME280;16133;49.486;12.176;2023-05-19T07:00:26;97935.56;;;15.71;54.71
29045;BME280;16133;49.486;12.176;2023-05-19T07:02:52;97946.72;;;15.75;55.56
29045;BME280;16133;49.486;12.176;2023-05-19T07:05:17;97946.00;;;16.07;54.46
29045;BME280;16133;49.486;12.176;2023-05-19T07:07:43;97946.91;;;16.41;52.88
29045;BME280;16133;49.486;12.176;2023-05-19T07:10:08;97944.09;;;16.55;52.90
29045;BME280;16133;49.486;12.176;2023-05-19T07:12:34;97950.72;;;16.72;51.54
29045;BME280;16133;49.486;12.176;2023-05-19T07:14:59;97952.16;;;16.82;51.53
29045;BME280;16133;49.486;12.176;2023-05-19T07:17:25;97942.66;;;16.72;50.45
29045;BME280;16133;49.486;12.176;2023-05-19T07:19:50;97947.00;;;16.87;50.73
29045;BME280;16133;49.486;12.176;2023-05-19T07:22:15;97949.03;;;17.17;51.14
29045;BME280;16133;49.486;12.176;2023-05-19T07:24:41;97941.16;;;17.49;48.87
29045;BME280;16133;49.486;12.176;2023-05-19T07:27:06;97934.97;;;17.61;49.30
29045;BME280;16133;49.486;12.176;2023-05-19T07:29:32;97936.19;;;17.52;49.35
29045;BME280;16133;49.486;12.176;2023-05-19T07:31:57;97944.47;;;17.51;49.37
29045;BME280;16133;49.486;12.176;2023-05-19T07:34:23;97933.66;;;17.84;49.06
29045;BME280;16133;49.486;12.176;2023-05-19T07:36:49;97934.00;;;17.94;47.79
29045;BME280;16133;49.486;12.176;2023-05-19T07:39:15;97930.41;;;18.13;47.78
29045;BME280;16133;49.486;12.176;2023-05-19T07:41:44;97921.19;;;18.34;47.39
29045;BME280;16133;49.486;12.176;2023-05-19T07:44:09;97926.28;;;18.48;47.97
29045;BME280;16133;49.486;12.176;2023-05-19T07:46:35;97925.59;;;18.59;46.59
29045;BME280;16133;49.486;12.176;2023-05-19T07:49:02;97917.53;;;18.59;46.31
29045;BME280;16133;49.486;12.176;2023-05-19T07:51:27;97913.94;;;18.72;47.11
29045;BME280;16133;49.486;12.176;2023-05-19T07:53:53;97923.28;;;18.70;46.66
29045;BME280;16133;49.486;12.176;2023-05-19T07:56:18;97921.00;;;18.35;46.89
29045;BME280;16133;49.486;12.176;2023-05-19T07:58:43;97909.84;;;17.94;47.76
29045;BME280;16133;49.486;12.176;2023-05-19T08:01:09;97909.53;;;17.77;48.31
29045;BME280;16133;49.486;12.176;2023-05-19T08:03:35;97893.28;;;17.46;48.79
29045;BME280;16133;49.486;12.176;2023-05-19T08:06:00;97917.47;;;17.39;48.89
29045;BME280;16133;49.486;12.176;2023-05-19T08:08:25;97918.50;;;17.32;49.21
29045;BME280;16133;49.486;12.176;2023-05-19T08:10:51;97906.16;;;17.24;50.53
29045;BME280;16133;49.486;12.176;2023-05-19T08:13:16;97911.09;;;17.27;51.79
29045;BME280;16133;49.486;12.176;2023-05-19T08:15:42;97904.47;;;17.30;49.77
29045;BME280;16133;49.486;12.176;2023-05-19T08:18:07;97909.84;;;17.23;49.53
29045;BME280;16133;49.486;12.176;2023-05-19T08:20:33;97911.72;;;17.16;50.39
29045;BME280;16133;49.486;12.176;2023-05-19T08:22:58;97908.22;;;17.15;49.59
29045;BME280;16133;49.486;12.176;2023-05-19T08:25:23;97903.25;;;17.19;49.44
29045;BME280;16133;49.486;12.176;2023-05-19T08:27:49;97902.44;;;17.12;49.31
29045;BME280;16133;49.486;12.176;2023-05-19T08:30:14;97893.53;;;17.31;49.93
29045;BME280;16133;49.486;12.176;2023-05-19T08:32:40;97889.03;;;17.18;49.50
29045;BME280;16133;49.486;12.176;2023-05-19T08:35:06;97888.31;;;17.49;49.23
29045;BME280;16133;49.486;12.176;2023-05-19T08:37:31;97890.25;;;17.87;49.08
29045;BME280;16133;49.486;12.176;2023-05-19T08:39:57;97887.88;;;18.41;49.37
29045;BME280;16133;49.486;12.176;2023-05-19T08:42:23;97879.81;;;18.73;48.16
29045;BME280;16133;49.486;12.176;2023-05-19T08:44:48;97877.50;;;19.01;47.57
29045;BME280;16133;49.486;12.176;2023-05-19T08:47:14;97885.16;;;19.22;46.71
29045;BME280;16133;49.486;12.176;2023-05-19T08:49:50;97888.13;;;19.14;45.38
29045;BME280;16133;49.486;12.176;2023-05-19T08:57:55;97886.03;;;18.42;46.92
29045;BME280;16133;49.486;12.176;2023-05-19T09:00:20;97877.50;;;18.45;47.65
29045;BME280;16133;49.486;12.176;2023-05-19T09:02:50;97873.41;;;18.42;47.52
29045;BME280;16133;49.486;12.176;2023-05-19T09:05:17;97878.22;;;18.34;48.10
29045;BME280;16133;49.486;12.176;2023-05-19T09:07:43;97876.44;;;18.21;48.38
29045;BME280;16133;49.486;12.176;2023-05-19T09:10:09;97872.91;;;18.27;48.29
29045;BME280;16133;49.486;12.176;2023-05-19T09:12:39;97860.13;;;18.54;48.72
29045;BME280;16133;49.486;12.176;2023-05-19T09:15:06;97863.50;;;18.68;46.71
29045;BME280;16133;49.486;12.176;2023-05-19T09:17:34;97859.03;;;18.30;48.33
29045;BME280;16133;49.486;12.176;2023-05-19T09:20:04;97846.72;;;18.16;48.58
29045;BME280;16133;49.486;12.176;2023-05-19T09:22:39;97841.44;;;18.34;46.94
29045;BME280;16133;49.486;12.176;2023-05-19T09:25:05;97863.38;;;18.31;47.82
29045;BME280;16133;49.486;12.176;2023-05-19T09:27:30;97845.25;;;18.20;48.47
29045;BME280;16133;49.486;12.176;2023-05-19T09:30:06;97859.53;;;18.45;48.95
29045;BME280;16133;49.486;12.176;2023-05-19T09:32:34;97852.81;;;18.61;47.55
29045;BME280;16133;49.486;12.176;2023-05-19T09:35:02;97840.28;;;18.55;47.58
29045;BME280;16133;49.486;12.176;2023-05-19T09:37:28;97842.97;;;18.48;48.83
29045;BME280;16133;49.486;12.176;2023-05-19T09:39:53;97844.53;;;18.87;46.79
29045;BME280;16133;49.486;12.176;2023-05-19T09:42:26;97834.53;;;18.45;47.29
29045;BME280;16133;49.486;12.176;2023-05-19T09:45:02;97845.66;;;18.48;47.68
29045;BME280;16133;49.486;12.176;2023-05-19T09:47:41;97839.59;;;18.59;47.51
29045;BME280;16133;49.486;12.176;2023-05-19T09:50:10;97834.63;;;18.32;48.42
29045;BME280;16133;49.486;12.176;2023-05-19T09:52:42;97827.06;;;18.47;49.70
29045;BME280;16133;49.486;12.176;2023-05-19T09:55:09;97826.97;;;18.35;48.88
29045;BME280;16133;49.486;12.176;2023-05-19T09:57:35;97826.91;;;18.42;46.93
29045;BME280;16133;49.486;12.176;2023-05-19T10:00:08;97811.63;;;18.67;46.80
29045;BME280;16133;49.486;12.176;2023-05-19T10:02:45;97818.53;;;18.56;48.46
29045;BME280;16133;49.486;12.176;2023-05-19T10:05:15;97809.72;;;18.92;47.80
29045;BME280;16133;49.486;12.176;2023-05-19T10:07:45;97813.03;;;19.31;47.04
29045;BME280;16133;49.486;12.176;2023-05-19T10:10:14;97806.97;;;19.53;47.70
29045;BME280;16133;49.486;12.176;2023-05-19T10:12:40;97803.16;;;19.61;45.21
29045;BME280;16133;49.486;12.176;2023-05-19T10:15:16;97798.88;;;19.72;46.10
29045;BME280;16133;49.486;12.176;2023-05-19T10:17:43;97799.50;;;19.55;45.60
29045;BME280;16133;49.486;12.176;2023-05-19T10:20:13;97788.66;;;19.44;45.57
29045;BME280;16133;49.486;12.176;2023-05-19T10:22:40;97798.00;;;19.41;45.77
29045;BME280;16133;49.486;12.176;2023-05-19T10:25:06;97797.25;;;18.98;46.04
29045;BME280;16133;49.486;12.176;2023-05-19T10:27:35;97789.00;;;18.50;46.07
29045;BME280;16133;49.486;12.176;2023-05-19T10:30:11;97793.06;;;18.34;48.00
29045;BME280;16133;49.486;12.176;2023-05-19T10:32:40;97783.97;;;18.35;49.59
29045;BME280;16133;49.486;12.176;2023-05-19T10:35:23;97775.38;;;18.51;48.33
29045;BME280;16133;49.486;12.176;2023-05-19T10:43:36;97780.00;;;18.38;48.33
29045;BME280;16133;49.486;12.176;2023-05-19T10:46:03;97769.72;;;18.35;47.24
29045;BME280;16133;49.486;12.176;2023-05-19T10:48:32;97769.16;;;18.51;48.36
29045;BME280;16133;49.486;12.176;2023-05-19T10:51:00;97779.69;;;18.28;50.66
29045;BME280;16133;49.486;12.176;2023-05-19T10:53:32;97783.41;;;18.27;49.32
29045;BME280;16133;49.486;12.176;2023-05-19T10:56:00;97778.59;;;18.35;49.32
29045;BME280;16133;49.486;12.176;2023-05-19T11:01:16;97774.56;;;17.95;50.29
29045;BME280;16133;49.486;12.176;2023-05-19T11:03:49;97782.03;;;17.93;51.78
29045;BME280;16133;49.486;12.176;2023-05-19T11:06:29;97782.19;;;17.66;51.02
29045;BME280;16133;49.486;12.176;2023-05-19T11:11:54;97766.09;;;17.66;50.63
29045;BME280;16133;49.486;12.176;2023-05-19T11:14:22;97762.78;;;17.64;53.06
29045;BME280;16133;49.486;12.176;2023-05-19T11:16:51;97759.78;;;17.86;50.94
29045;BME280;16133;49.486;12.176;2023-05-19T11:19:18;97759.19;;;18.08;50.88
29045;BME280;16133;49.486;12.176;2023-05-19T11:27:33;97762.56;;;18.90;50.81
29045;BME280;16133;49.486;12.176;2023-05-19T11:30:09;97762.66;;;19.20;47.56
29045;BME280;16133;49.486;12.176;2023-05-19T11:32:48;97756.16;;;19.45;46.81
29045;BME280;16133;49.486;12.176;2023-05-19T11:35:15;97746.09;;;19.82;46.10
29045;BME280;16133;49.486;12.176;2023-05-19T11:37:44;97752.22;;;20.31;45.45
29045;BME280;16133;49.486;12.176;2023-05-19T11:40:12;97749.97;;;20.63;44.63
29045;BME280;16133;49.486;12.176;2023-05-19T11:42:39;97744.22;;;20.94;44.09
29045;BME280;16133;49.486;12.176;2023-05-19T11:45:05;97739.81;;;21.28;44.66
29045;BME280;16133;49.486;12.176;2023-05-19T11:47:31;97743.53;;;21.67;42.34
29045;BME280;16133;49.486;12.176;2023-05-19T11:49:59;97738.81;;;21.74;42.18
29045;BME280;16133;49.486;12.176;2023-05-19T11:52:25;97738.69;;;21.80;41.35
29045;BME280;16133;49.486;12.176;2023-05-19T11:54:54;97746.25;;;21.38;41.60
29045;BME280;16133;49.486;12.176;2023-05-19T11:57:20;97734.25;;;20.94;42.24
29045;BME280;16133;49.486;12.176;2023-05-19T11:59:46;97747.41;;;20.79;43.29
29045;BME280;16133;49.486;12.176;2023-05-19T12:02:20;97746.09;;;20.59;44.47
29045;BME280;16133;49.486;12.176;2023-05-19T12:04:47;97755.16;;;20.64;44.96
29045;BME280;16133;49.486;12.176;2023-05-19T12:07:18;97748.72;;;20.65;43.84
29045;BME280;16133;49.486;12.176;2023-05-19T12:09:45;97739.63;;;20.94;43.40
29045;BME280;16133;49.486;12.176;2023-05-19T12:12:20;97743.16;;;21.18;43.58
29045;BME280;16133;49.486;12.176;2023-05-19T12:14:49;97738.53;;;21.30;43.34
29045;BME280;16133;49.486;12.176;2023-05-19T12:17:16;97752.19;;;21.52;42.66
29045;BME280;16133;49.486;12.176;2023-05-19T12:19:43;97735.38;;;21.62;42.69
29045;BME280;16133;49.486;12.176;2023-05-19T12:22:09;97733.00;;;22.10;42.02
29045;BME280;16133;49.486;12.176;2023-05-19T12:24:36;97733.97;;;22.54;41.45
29045;BME280;16133;49.486;12.176;2023-05-19T12:27:25;97735.66;;;23.15;41.37
29045;BME280;16133;49.486;12.176;2023-05-19T12:29:55;97729.69;;;23.57;40.77
29045;BME280;16133;49.486;12.176;2023-05-19T12:32:25;97727.44;;;23.49;39.77
29045;BME280;16133;49.486;12.176;2023-05-19T12:34:52;97744.66;;;23.21;39.45
29045;BME280;16133;49.486;12.176;2023-05-19T12:37:18;97732.94;;;22.72;39.55
29045;BME280;16133;49.486;12.176;2023-05-19T12:39:44;97739.00;;;22.46;40.86
29045;BME280;16133;49.486;12.176;2023-05-19T12:42:10;97735.88;;;22.20;41.41
29045;BME280;16133;49.486;12.176;2023-05-19T12:44:44;97731.81;;;21.89;42.13
29045;BME280;16133;49.486;12.176;2023-05-19T12:47:13;97719.34;;;21.72;42.72
29045;BME280;16133;49.486;12.176;2023-05-19T12:52:24;97734.91;;;21.25;43.60
29045;BME280;16133;49.486;12.176;2023-05-19T12:54:58;97733.53;;;20.99;43.84
29045;BME280;16133;49.486;12.176;2023-05-19T12:57:25;97730.06;;;20.75;44.35
29045;BME280;16133;49.486;12.176;2023-05-19T12:59:59;97725.81;;;20.79;44.91
29045;BME280;16133;49.486;12.176;2023-05-19T13:02:24;97719.13;;;20.82;45.32
29045;BME280;16133;49.486;12.176;2023-05-19T13:04:50;97715.22;;;21.01;44.87
29045;BME280;16133;49.486;12.176;2023-05-19T13:07:16;97729.16;;;21.21;44.73
29045;BME280;16133;49.486;12.176;2023-05-19T13:09:41;97727.09;;;21.40;44.11
29045;BME280;16133;49.486;12.176;2023-05-19T13:12:07;97729.47;;;21.36;44.42
29045;BME280;16133;49.486;12.176;2023-05-19T13:14:32;97728.59;;;21.48;44.92
29045;BME280;16133;49.486;12.176;2023-05-19T13:16:57;97719.31;;;21.27;44.37
29045;BME280;16133;49.486;12.176;2023-05-19T13:19:23;97721.78;;;21.05;45.99
29045;BME280;16133;49.486;12.176;2023-05-19T13:21:48;97724.53;;;20.82;45.97
29045;BME280;16133;49.486;12.176;2023-05-19T13:24:15;97728.88;;;20.60;46.60
29045;BME280;16133;49.486;12.176;2023-05-19T13:26:40;97722.78;;;20.52;46.39